Time;durP1;ratioP1;P1;durP2;ratioP2;P2;SDS_P1;SDS_P2;PMS_P1;PMS_P2;Temp;Humidity;BMP_temperature;BMP_pressure;BME280_temperature;BME280_humidity;BME280_pressure;Samples;Min_cycle;Max_cycle;Signal;HPM_P1;HPM_P2
2021/10/25 00:01:56;;;;;;;;;;;20.40;48.30;;;;;;495257;239;1505;-47
2021/10/25 00:03:57;;;;;;;;;;;20.40;48.30;;;;;;495272;239;1027;-47
2021/10/25 00:05:59;;;;;;;;;;;20.40;48.40;;;;;;495190;239;1187;-47
2021/10/25 00:08:00;;;;;;;;;;;20.40;48.20;;;;;;494812;239;2194;-47
2021/10/25 00:10:01;;;;;;;;;;;20.40;48.20;;;;;;495025;239;1229;-47
2021/10/25 00:12:03;;;;;;;;;;;20.40;48.20;;;;;;495213;239;1238;-47
2021/10/25 00:14:04;;;;;;;;;;;20.40;48.10;;;;;;494909;239;1104;-47
2021/10/25 00:16:05;;;;;;;;;;;20.40;48.20;;;;;;494734;239;1369;-47
2021/10/25 00:18:07;;;;;;;;;;;20.40;48.20;;;;;;494847;239;1152;-47
2021/10/25 00:20:08;;;;;;;;;;;20.40;48.20;;;;;;495306;239;1098;-47
2021/10/25 00:22:09;;;;;;;;;;;20.40;48.20;;;;;;494809;239;1261;-47
2021/10/25 00:24:11;;;;;;;;;;;20.40;48.30;;;;;;494961;239;2384;-47
2021/10/25 00:26:12;;;;;;;;;;;20.40;48.30;;;;;;494822;241;1384;-47
2021/10/25 00:28:14;;;;;;;;;;;20.40;48.40;;;;;;494729;239;2116;-47
2021/10/25 00:30:15;;;;;;;;;;;20.40;48.30;;;;;;494730;239;1030;-47
2021/10/25 00:32:16;;;;;;;;;;;20.40;48.30;;;;;;494826;239;1239;-47
2021/10/25 00:34:18;;;;;;;;;;;20.40;48.20;;;;;;494866;239;1132;-47
2021/10/25 00:36:19;;;;;;;;;;;20.40;48.20;;;;;;494776;239;1394;-47
2021/10/25 00:38:20;;;;;;;;;;;20.40;48.30;;;;;;495217;239;1270;-46
2021/10/25 00:40:23;;;;;;;;;;;20.40;48.30;;;;;;494747;239;1167;-46
2021/10/25 00:42:23;;;;;;;;;;;20.40;48.30;;;;;;495070;241;2239;-47
2021/10/25 00:44:25;;;;;;;;;;;20.40;48.20;;;;;;494822;239;1144;-47
2021/10/25 00:46:26;;;;;;;;;;;20.40;48.20;;;;;;494741;239;1076;-47
2021/10/25 00:48:27;;;;;;;;;;;20.30;48.10;;;;;;495286;239;2119;-47
2021/10/25 00:50:29;;;;;;;;;;;20.40;48.20;;;;;;494842;239;1095;-47
2021/10/25 00:52:31;;;;;;;;;;;20.40;48.20;;;;;;495050;239;1315;-47
2021/10/25 00:54:31;;;;;;;;;;;20.40;48.30;;;;;;494868;241;2221;-47
2021/10/25 00:56:33;;;;;;;;;;;20.40;48.20;;;;;;495207;239;1111;-47
2021/10/25 00:58:34;;;;;;;;;;;20.40;48.20;;;;;;494990;239;1220;-47
2021/10/25 01:00:35;;;;;;;;;;;20.40;48.30;;;;;;494710;239;1070;-47
2021/10/25 01:02:37;;;;;;;;;;;20.40;48.20;;;;;;495224;239;1336;-47
2021/10/25 01:04:38;;;;;;;;;;;20.30;48.20;;;;;;495280;239;1050;-47
2021/10/25 01:06:39;;;;;;;;;;;20.40;48.30;;;;;;494836;239;1243;-47
2021/10/25 01:08:40;;;;;;;;;;;20.40;48.20;;;;;;495106;239;2119;-47
2021/10/25 01:10:42;;;;;;;;;;;20.40;48.20;;;;;;494937;239;1220;-47
2021/10/25 01:12:43;;;;;;;;;;;20.40;48.20;;;;;;494938;239;1201;-47
2021/10/25 01:14:44;;;;;;;;;;;20.40;48.10;;;;;;495229;239;1096;-47
2021/10/25 01:16:46;;;;;;;;;;;20.40;48.10;;;;;;495028;239;1343;-46
2021/10/25 01:18:49;;;;;;;;;;;20.40;48.10;;;;;;494963;239;1166;-47
2021/10/25 01:20:49;;;;;;;;;;;20.40;48.20;;;;;;495008;239;2349;-47
2021/10/25 01:22:50;;;;;;;;;;;20.40;48.10;;;;;;494732;239;1159;-46
2021/10/25 01:24:52;;;;;;;;;;;20.40;48.20;;;;;;495243;239;1132;-46
2021/10/25 01:26:53;;;;;;;;;;;20.40;48.20;;;;;;494921;239;1318;-47
2021/10/25 01:28:54;;;;;;;;;;;20.40;48.10;;;;;;494687;239;2430;-47
2021/10/25 01:30:56;;;;;;;;;;;20.40;48.10;;;;;;495126;239;1380;-47
2021/10/25 01:32:57;;;;;;;;;;;20.40;48.00;;;;;;495272;239;990;-47
2021/10/25 01:34:59;;;;;;;;;;;20.40;48.10;;;;;;495321;239;1112;-47
2021/10/25 01:37:00;;;;;;;;;;;20.40;48.10;;;;;;495252;239;1045;-47
2021/10/25 01:39:01;;;;;;;;;;;20.40;48.10;;;;;;495179;239;1064;-47
2021/10/25 01:41:03;;;;;;;;;;;20.40;48.10;;;;;;494873;239;1273;-46
2021/10/25 01:43:04;;;;;;;;;;;20.30;48.10;;;;;;495240;239;999;-47
2021/10/25 01:45:05;;;;;;;;;;;20.40;48.20;;;;;;494738;239;1053;-47
2021/10/25 01:47:07;;;;;;;;;;;20.40;48.10;;;;;;494876;239;2123;-47
2021/10/25 01:49:08;;;;;;;;;;;20.30;48.20;;;;;;495236;239;1073;-47
2021/10/25 01:51:10;;;;;;;;;;;20.40;48.20;;;;;;495196;239;1333;-47
2021/10/25 01:53:11;;;;;;;;;;;20.30;48.10;;;;;;494924;239;1138;-47
2021/10/25 01:55:12;;;;;;;;;;;20.40;48.10;;;;;;495269;239;1232;-47
2021/10/25 01:57:13;;;;;;;;;;;20.40;48.00;;;;;;494918;239;1381;-46
2021/10/25 01:59:15;;;;;;;;;;;20.40;48.00;;;;;;495314;239;1048;-47
2021/10/25 02:01:16;;;;;;;;;;;20.40;47.90;;;;;;495199;239;1255;-47
2021/10/25 02:03:18;;;;;;;;;;;20.40;47.90;;;;;;494914;239;1060;-47
2021/10/25 02:05:19;;;;;;;;;;;20.40;48.00;;;;;;494851;239;1081;-47
2021/10/25 02:07:21;;;;;;;;;;;20.30;48.00;;;;;;495232;239;2104;-47
2021/10/25 02:09:22;;;;;;;;;;;20.40;48.10;;;;;;494770;239;1056;-47
2021/10/25 02:11:23;;;;;;;;;;;20.30;48.00;;;;;;494964;239;1534;-47
2021/10/25 02:13:25;;;;;;;;;;;20.40;48.10;;;;;;495234;239;1222;-47
2021/10/25 02:15:26;;;;;;;;;;;20.30;48.00;;;;;;494639;239;2116;-47
2021/10/25 02:17:27;;;;;;;;;;;20.30;48.00;;;;;;495192;239;1217;-46
2021/10/25 02:19:29;;;;;;;;;;;20.30;48.00;;;;;;495258;239;1197;-47
2021/10/25 02:21:30;;;;;;;;;;;20.40;48.10;;;;;;495000;239;1192;-47
2021/10/25 02:23:31;;;;;;;;;;;20.40;48.00;;;;;;494843;239;1219;-47
2021/10/25 02:25:32;;;;;;;;;;;20.30;48.00;;;;;;494819;239;1109;-47
2021/10/25 02:27:34;;;;;;;;;;;20.40;48.10;;;;;;494772;239;2131;-47
2021/10/25 02:29:36;;;;;;;;;;;20.30;48.10;;;;;;494774;239;1100;-47
2021/10/25 02:31:37;;;;;;;;;;;20.40;48.00;;;;;;494932;239;1476;-47
2021/10/25 02:33:38;;;;;;;;;;;20.40;48.10;;;;;;494846;239;1231;-47
2021/10/25 02:35:40;;;;;;;;;;;20.40;48.00;;;;;;494829;239;1066;-47
2021/10/25 02:37:41;;;;;;;;;;;20.30;47.90;;;;;;495296;239;1276;-47
2021/10/25 02:39:43;;;;;;;;;;;20.40;48.00;;;;;;494809;239;1037;-47
2021/10/25 02:41:43;;;;;;;;;;;20.40;47.90;;;;;;494789;239;1383;-47
2021/10/25 02:43:45;;;;;;;;;;;20.40;47.90;;;;;;495305;239;1581;-47
2021/10/25 02:45:46;;;;;;;;;;;20.40;47.90;;;;;;495279;239;1094;-47
2021/10/25 02:47:47;;;;;;;;;;;20.40;47.90;;;;;;494773;239;2131;-47
2021/10/25 02:49:49;;;;;;;;;;;20.40;47.90;;;;;;494862;239;1066;-47
2021/10/25 02:51:50;;;;;;;;;;;20.40;47.90;;;;;;495264;239;1328;-47
2021/10/25 02:53:51;;;;;;;;;;;20.40;48.00;;;;;;494792;239;1056;-47
2021/10/25 02:55:53;;;;;;;;;;;20.40;48.00;;;;;;495217;239;1060;-47
2021/10/25 02:57:54;;;;;;;;;;;20.40;47.90;;;;;;494810;239;1203;-47
2021/10/25 02:59:55;;;;;;;;;;;20.40;47.90;;;;;;495285;239;1081;-47
2021/10/25 03:01:57;;;;;;;;;;;20.30;47.90;;;;;;495204;239;1170;-47
2021/10/25 03:03:58;;;;;;;;;;;20.40;47.90;;;;;;494828;239;971;-46
2021/10/25 03:05:59;;;;;;;;;;;20.40;48.00;;;;;;495297;239;1150;-46
2021/10/25 03:08:01;;;;;;;;;;;20.30;48.00;;;;;;495284;239;2186;-47
2021/10/25 03:10:02;;;;;;;;;;;20.40;48.10;;;;;;494955;239;959;-47
2021/10/25 03:12:03;;;;;;;;;;;20.40;48.00;;;;;;494771;239;1212;-46
2021/10/25 03:14:04;;;;;;;;;;;20.40;48.00;;;;;;495040;239;1137;-46
2021/10/25 03:16:06;;;;;;;;;;;20.40;48.00;;;;;;494766;239;1143;-46
2021/10/25 03:18:07;;;;;;;;;;;20.40;47.90;;;;;;494765;239;1176;-47
2021/10/25 03:20:09;;;;;;;;;;;20.40;48.00;;;;;;495234;239;1102;-47
2021/10/25 03:22:12;;;;;;;;;;;20.40;47.90;;;;;;494817;239;1269;-47
2021/10/25 03:24:11;;;;;;;;;;;20.40;47.90;;;;;;494817;239;2110;-47
2021/10/25 03:26:13;;;;;;;;;;;20.40;47.90;;;;;;494890;239;1162;-46
2021/10/25 03:28:14;;;;;;;;;;;20.40;47.90;;;;;;494761;239;2186;-47
2021/10/25 03:30:16;;;;;;;;;;;20.40;47.90;;;;;;494874;239;1054;-47
2021/10/25 03:32:17;;;;;;;;;;;20.40;47.90;;;;;;494698;239;1277;-47
2021/10/25 03:34:18;;;;;;;;;;;20.30;47.80;;;;;;494981;239;1100;-47
2021/10/25 03:36:21;;;;;;;;;;;20.40;47.90;;;;;;495189;239;1242;-47
2021/10/25 03:38:21;;;;;;;;;;;20.40;47.90;;;;;;494657;241;2123;-46
2021/10/25 03:40:22;;;;;;;;;;;20.30;47.90;;;;;;494753;239;2204;-47
2021/10/25 03:42:27;;;;;;;;;;;20.40;47.90;;;;;;494817;239;1348;-47
2021/10/25 03:44:28;;;;;;;;;;;20.40;47.90;;;;;;494660;241;2199;-47
2021/10/25 03:46:33;;;;;;;;;;;20.30;47.80;;;;;;495013;241;1705;-47
2021/10/25 03:48:34;;;;;;;;;;;20.40;47.90;;;;;;494822;241;2201;-46
2021/10/25 03:50:33;;;;;;;;;;;20.40;47.90;;;;;;494986;241;2525;-47
2021/10/25 03:52:36;;;;;;;;;;;20.30;47.90;;;;;;494783;241;1990;-47
2021/10/25 03:54:37;;;;;;;;;;;20.30;47.90;;;;;;494504;241;2243;-47
2021/10/25 03:56:54;;;;;;;;;;;20.30;47.90;;;;;;494672;241;2392;-47
2021/10/25 03:59:17;;;;;;;;;;;20.30;47.90;;;;;;494205;241;2265;-47
2021/10/25 04:01:33;;;;;;;;;;;20.30;47.90;;;;;;494276;241;2071;-47
2021/10/25 04:26:52;;;;;;;;;;;20.40;47.90;;;;;;494644;241;1250;-47
2021/10/25 04:28:50;;;;;;;;;;;20.30;47.80;;;;;;494598;241;2182;-47
2021/10/25 04:30:57;;;;;;;;;;;20.30;47.80;;;;;;494814;239;1159;-47
2021/10/25 04:32:56;;;;;;;;;;;20.30;47.80;;;;;;494618;241;2286;-46
2021/10/25 04:34:58;;;;;;;;;;;20.30;47.80;;;;;;495235;239;1009;-47
2021/10/25 04:36:59;;;;;;;;;;;20.30;47.90;;;;;;495119;239;1413;-47
2021/10/25 04:39:02;;;;;;;;;;;20.40;47.90;;;;;;494808;239;1015;-47
2021/10/25 04:41:02;;;;;;;;;;;20.30;47.80;;;;;;494429;241;2186;-47
2021/10/25 04:43:03;;;;;;;;;;;20.40;47.80;;;;;;494930;239;1148;-47
2021/10/25 04:45:04;;;;;;;;;;;20.40;47.80;;;;;;494923;239;1069;-47
2021/10/25 04:47:06;;;;;;;;;;;20.40;47.80;;;;;;494603;239;1221;-46
2021/10/25 04:49:07;;;;;;;;;;;20.30;47.70;;;;;;495150;239;2110;-47
2021/10/25 04:51:09;;;;;;;;;;;20.40;47.80;;;;;;494589;239;1175;-47
2021/10/25 04:53:10;;;;;;;;;;;20.30;47.80;;;;;;494602;239;2197;-47
2021/10/25 04:55:11;;;;;;;;;;;20.30;47.80;;;;;;494635;239;1043;-47
2021/10/25 04:57:13;;;;;;;;;;;20.40;47.70;;;;;;494735;239;1339;-47
2021/10/25 04:59:16;;;;;;;;;;;20.30;47.70;;;;;;494614;239;1184;-47
2021/10/25 05:01:15;;;;;;;;;;;20.40;47.60;;;;;;494890;239;1414;-47
2021/10/25 05:03:17;;;;;;;;;;;20.40;47.80;;;;;;494938;239;1092;-46
2021/10/25 05:05:18;;;;;;;;;;;20.40;47.80;;;;;;494627;239;2211;-47
2021/10/25 05:07:19;;;;;;;;;;;20.40;47.60;;;;;;494672;239;1284;-47
2021/10/25 05:09:20;;;;;;;;;;;20.40;47.60;;;;;;494547;239;2187;-47
2021/10/25 05:11:23;;;;;;;;;;;20.40;47.70;;;;;;494463;239;1331;-47
2021/10/25 05:13:23;;;;;;;;;;;20.30;47.60;;;;;;494630;239;2284;-47
2021/10/25 05:15:24;;;;;;;;;;;20.40;47.60;;;;;;494695;239;1026;-47
2021/10/25 05:17:26;;;;;;;;;;;20.40;47.70;;;;;;494506;239;1246;-47
2021/10/25 05:19:27;;;;;;;;;;;20.40;47.70;;;;;;494549;239;1028;-46
2021/10/25 05:21:28;;;;;;;;;;;20.40;47.80;;;;;;494709;239;1231;-47
2021/10/25 05:23:30;;;;;;;;;;;20.40;47.70;;;;;;494703;239;1193;-47
2021/10/25 05:25:32;;;;;;;;;;;20.40;47.70;;;;;;494522;239;1049;-47
2021/10/25 05:27:33;;;;;;;;;;;20.30;47.70;;;;;;494473;239;1183;-47
2021/10/25 05:29:34;;;;;;;;;;;20.40;47.70;;;;;;494535;239;2190;-47
2021/10/25 05:31:35;;;;;;;;;;;20.40;47.70;;;;;;494573;239;1321;-47
2021/10/25 05:33:37;;;;;;;;;;;20.40;47.70;;;;;;494349;239;1002;-47
2021/10/25 05:35:38;;;;;;;;;;;20.40;47.70;;;;;;494299;239;1204;-47
2021/10/25 05:37:40;;;;;;;;;;;20.30;47.60;;;;;;494542;239;1314;-47
2021/10/25 05:39:41;;;;;;;;;;;20.30;47.60;;;;;;494473;239;1075;-47
2021/10/25 05:41:44;;;;;;;;;;;20.40;47.60;;;;;;494451;239;1356;-47
2021/10/25 05:43:44;;;;;;;;;;;20.40;47.60;;;;;;494359;239;2308;-47
2021/10/25 05:45:45;;;;;;;;;;;20.40;47.60;;;;;;494387;239;1379;-47
2021/10/25 05:47:47;;;;;;;;;;;20.40;47.60;;;;;;494423;239;1220;-47
2021/10/25 05:49:48;;;;;;;;;;;20.40;47.60;;;;;;494342;239;2108;-47
2021/10/25 05:51:49;;;;;;;;;;;20.40;47.60;;;;;;494228;239;1199;-47
2021/10/25 05:53:50;;;;;;;;;;;20.40;47.60;;;;;;494402;239;1146;-47
2021/10/25 05:55:52;;;;;;;;;;;20.30;47.50;;;;;;494567;239;1312;-46
2021/10/25 05:57:54;;;;;;;;;;;20.30;47.60;;;;;;494469;239;1182;-47
2021/10/25 05:59:55;;;;;;;;;;;20.40;47.60;;;;;;494496;239;1219;-47
2021/10/25 06:01:58;;;;;;;;;;;20.40;47.60;;;;;;494286;239;1176;-47
2021/10/25 06:04:04;;;;;;;;;;;20.30;47.60;;;;;;494232;241;2319;-47
2021/10/25 06:06:01;;;;;;;;;;;20.40;47.60;;;;;;494127;241;2085;-47
2021/10/25 06:08:03;;;;;;;;;;;20.30;47.60;;;;;;494436;239;1307;-47
2021/10/25 06:10:04;;;;;;;;;;;20.40;47.60;;;;;;494817;239;2309;-47
2021/10/25 06:12:09;;;;;;;;;;;20.40;47.60;;;;;;494392;239;1628;-47
2021/10/25 06:14:09;;;;;;;;;;;20.40;47.50;;;;;;494043;241;1828;-47
2021/10/25 06:16:12;;;;;;;;;;;20.40;47.50;;;;;;494220;241;1993;-46
2021/10/25 06:18:11;;;;;;;;;;;20.40;47.60;;;;;;494082;241;2098;-47
2021/10/25 06:20:12;;;;;;;;;;;20.40;47.50;;;;;;494245;239;1031;-47
2021/10/25 06:22:15;;;;;;;;;;;20.30;47.50;;;;;;494298;239;1320;-47
2021/10/25 06:24:15;;;;;;;;;;;20.30;47.50;;;;;;494259;239;1278;-47
2021/10/25 06:26:16;;;;;;;;;;;20.40;47.50;;;;;;494432;239;1369;-47
2021/10/25 06:28:17;;;;;;;;;;;20.30;47.50;;;;;;494259;239;1047;-47
2021/10/25 06:30:19;;;;;;;;;;;20.40;47.60;;;;;;494221;239;2207;-47
2021/10/25 06:32:20;;;;;;;;;;;20.40;47.60;;;;;;494322;239;1280;-47
2021/10/25 06:34:23;;;;;;;;;;;20.40;47.60;;;;;;494181;239;1201;-47
2021/10/25 06:36:23;;;;;;;;;;;20.40;47.50;;;;;;493994;241;2232;-47
2021/10/25 06:38:30;;;;;;;;;;;20.30;47.50;;;;;;494087;239;1123;-46
2021/10/25 06:40:28;;;;;;;;;;;20.30;47.60;;;;;;493611;241;1568;-47
2021/10/25 06:42:28;;;;;;;;;;;20.30;47.60;;;;;;493979;239;1955;-47
2021/10/25 06:44:29;;;;;;;;;;;20.30;47.60;;;;;;494219;239;1165;-47
2021/10/25 06:46:31;;;;;;;;;;;20.30;47.60;;;;;;493987;239;1234;-46
2021/10/25 06:48:32;;;;;;;;;;;20.40;47.50;;;;;;494331;239;1199;-47
2021/10/25 06:50:39;;;;;;;;;;;20.40;47.50;;;;;;494175;239;2195;-47
2021/10/25 06:52:35;;;;;;;;;;;20.30;47.50;;;;;;493729;241;2371;-47
2021/10/25 06:54:36;;;;;;;;;;;20.30;47.60;;;;;;494118;239;1046;-47
2021/10/25 06:56:38;;;;;;;;;;;20.40;47.60;;;;;;493982;239;1270;-47
2021/10/25 06:58:39;;;;;;;;;;;20.30;47.60;;;;;;493999;239;1454;-47
2021/10/25 07:00:40;;;;;;;;;;;20.30;47.60;;;;;;493811;239;1147;-47
2021/10/25 07:02:41;;;;;;;;;;;20.30;47.60;;;;;;493872;239;1259;-47
2021/10/25 07:04:43;;;;;;;;;;;20.40;47.60;;;;;;494020;239;1081;-47
2021/10/25 07:06:44;;;;;;;;;;;20.30;47.60;;;;;;493850;239;1147;-46
2021/10/25 07:08:47;;;;;;;;;;;20.30;47.70;;;;;;494144;239;1286;-47
2021/10/25 07:10:47;;;;;;;;;;;20.30;47.60;;;;;;493793;241;2335;-47
2021/10/25 07:12:49;;;;;;;;;;;20.30;47.60;;;;;;493949;239;1239;-47
2021/10/25 07:14:53;;;;;;;;;;;20.30;47.50;;;;;;494108;239;1178;-47
2021/10/25 07:16:55;;;;;;;;;;;20.40;47.60;;;;;;493744;241;2032;-47
2021/10/25 07:19:06;;;;;;;;;;;20.40;47.50;;;;;;493636;241;2154;-47
2021/10/25 07:21:28;;;;;;;;;;;20.40;47.50;;;;;;493598;241;2279;-47
2021/10/25 07:23:55;;;;;;;;;;;20.40;47.50;;;;;;493550;241;2150;-47
2021/10/25 08:04:14;;;;;;;;;;;20.40;47.50;;;;;;494074;239;1346;-47
2021/10/25 08:06:16;;;;;;;;;;;20.40;47.50;;;;;;493393;241;2349;-47
2021/10/25 08:08:38;;;;;;;;;;;20.40;47.50;;;;;;493886;239;2063;-47
2021/10/25 08:10:38;;;;;;;;;;;20.40;47.50;;;;;;493313;241;2183;-47
2021/10/25 08:12:39;;;;;;;;;;;20.30;47.50;;;;;;493520;241;1382;-47
2021/10/25 08:14:41;;;;;;;;;;;20.30;47.50;;;;;;493692;241;1681;-47
2021/10/25 08:16:48;;;;;;;;;;;20.30;47.50;;;;;;493581;241;1968;-47
2021/10/25 08:19:11;;;;;;;;;;;20.30;47.50;;;;;;493876;239;2140;-47
2021/10/25 08:21:10;;;;;;;;;;;20.30;47.50;;;;;;493706;241;2328;-46
2021/10/25 08:23:11;;;;;;;;;;;20.30;47.50;;;;;;493957;239;1295;-47
2021/10/25 08:25:13;;;;;;;;;;;20.40;47.60;;;;;;493953;239;1144;-47
2021/10/25 08:27:14;;;;;;;;;;;20.40;47.50;;;;;;493889;239;1496;-47
2021/10/25 08:29:15;;;;;;;;;;;20.40;47.50;;;;;;493970;239;2210;-47
2021/10/25 08:31:17;;;;;;;;;;;20.30;47.50;;;;;;494118;237;1239;-46
2021/10/25 08:33:40;;;;;;;;;;;20.40;47.60;;;;;;493891;239;1333;-47
2021/10/25 08:35:51;;;;;;;;;;;20.40;47.50;;;;;;492902;241;2397;-47
2021/10/25 08:40:08;;;;;;;;;;;20.40;47.40;;;;;;493709;241;1356;-46
2021/10/25 08:42:09;;;;;;;;;;;20.40;47.40;;;;;;493795;239;1268;-47
2021/10/25 08:44:11;;;;;;;;;;;20.30;47.50;;;;;;493630;239;1133;-47
2021/10/25 08:46:12;;;;;;;;;;;20.40;47.50;;;;;;493424;239;1325;-47
2021/10/25 08:48:13;;;;;;;;;;;20.40;47.40;;;;;;493801;241;1162;-47
2021/10/25 08:50:15;;;;;;;;;;;20.30;47.50;;;;;;494387;239;2187;-47
2021/10/25 08:52:16;;;;;;;;;;;20.30;47.50;;;;;;494121;239;1658;-47
2021/10/25 08:54:17;;;;;;;;;;;20.30;47.60;;;;;;494135;239;1075;-47
2021/10/25 08:56:18;;;;;;;;;;;20.30;47.50;;;;;;494228;239;1252;-47
2021/10/25 08:58:20;;;;;;;;;;;20.30;47.50;;;;;;494164;239;1044;-46
2021/10/25 09:00:21;;;;;;;;;;;20.30;47.50;;;;;;493893;239;1149;-47
2021/10/25 09:02:23;;;;;;;;;;;20.30;47.50;;;;;;494208;239;1202;-47
2021/10/25 09:04:24;;;;;;;;;;;20.30;47.50;;;;;;493970;239;1118;-46
2021/10/25 09:06:25;;;;;;;;;;;20.40;47.50;;;;;;494116;239;1141;-47
2021/10/25 09:08:26;;;;;;;;;;;20.30;47.50;;;;;;493912;239;1131;-46
2021/10/25 09:10:28;;;;;;;;;;;20.30;47.40;;;;;;493806;239;2115;-47
2021/10/25 09:12:29;;;;;;;;;;;20.40;47.50;;;;;;494192;239;1018;-47
2021/10/25 09:14:30;;;;;;;;;;;20.30;47.50;;;;;;494090;241;1320;-47
2021/10/25 09:16:32;;;;;;;;;;;20.30;47.50;;;;;;493901;239;1382;-47
2021/10/25 09:18:33;;;;;;;;;;;20.30;47.50;;;;;;494038;239;1042;-47
2021/10/25 09:20:34;;;;;;;;;;;20.30;47.50;;;;;;494057;239;1280;-47
2021/10/25 09:22:35;;;;;;;;;;;20.30;47.50;;;;;;493901;239;1233;-46
2021/10/25 09:24:37;;;;;;;;;;;20.30;47.50;;;;;;493722;239;1090;-47
2021/10/25 09:26:39;;;;;;;;;;;20.30;47.50;;;;;;493933;239;1395;-46
2021/10/25 09:28:40;;;;;;;;;;;20.30;47.50;;;;;;494145;239;936;-47
2021/10/25 09:30:41;;;;;;;;;;;20.30;47.50;;;;;;494432;239;2174;-47
2021/10/25 09:32:43;;;;;;;;;;;20.30;47.50;;;;;;493617;239;1228;-47
2021/10/25 09:34:47;;;;;;;;;;;20.30;47.50;;;;;;493838;239;1110;-46
2021/10/25 09:36:50;;;;;;;;;;;20.30;47.50;;;;;;493831;241;2166;-47
2021/10/25 09:38:55;;;;;;;;;;;20.30;47.50;;;;;;493939;241;2230;-47
2021/10/25 09:41:29;;;;;;;;;;;20.30;47.50;;;;;;493540;241;2050;-47
2021/10/25 09:43:25;;;;;;;;;;;20.30;47.50;;;;;;493785;241;2151;-46
2021/10/25 09:50:24;;;;;;;;;;;20.30;47.60;;;;;;465938;253;2188;-47
2021/10/25 09:52:26;;;;;;;;;;;20.30;47.60;;;;;;480849;241;1279;-47
2021/10/25 09:54:28;;;;;;;;;;;20.30;47.60;;;;;;494487;239;1031;-47
2021/10/25 09:56:30;;;;;;;;;;;20.30;47.60;;;;;;493692;239;2468;-47
2021/10/25 09:58:38;;;;;;;;;;;20.30;47.50;;;;;;494007;239;2141;-47
2021/10/25 10:00:32;;;;;;;;;;;20.30;47.60;;;;;;493453;241;2055;-47
2021/10/25 10:02:34;;;;;;;;;;;20.30;47.60;;;;;;493899;239;1234;-47
2021/10/25 10:04:34;;;;;;;;;;;20.30;47.70;;;;;;493709;239;2249;-47
2021/10/25 10:06:36;;;;;;;;;;;20.30;47.60;;;;;;493921;239;1259;-47
2021/10/25 10:08:37;;;;;;;;;;;20.30;47.50;;;;;;494077;239;1074;-47
2021/10/25 10:10:38;;;;;;;;;;;20.30;47.70;;;;;;493824;239;2186;-47
2021/10/25 10:12:40;;;;;;;;;;;20.30;47.70;;;;;;494064;239;1287;-47
2021/10/25 10:14:41;;;;;;;;;;;20.30;47.60;;;;;;493993;241;1211;-47
2021/10/25 10:16:42;;;;;;;;;;;20.30;47.60;;;;;;494095;239;1230;-47
2021/10/25 10:18:44;;;;;;;;;;;20.30;47.60;;;;;;494106;239;1168;-47
2021/10/25 10:20:45;;;;;;;;;;;20.30;47.60;;;;;;493944;239;1233;-47
2021/10/25 10:22:46;;;;;;;;;;;20.30;47.70;;;;;;494286;239;1256;-47
2021/10/25 10:24:48;;;;;;;;;;;20.30;47.60;;;;;;493808;239;1045;-47
2021/10/25 10:26:49;;;;;;;;;;;20.30;47.70;;;;;;493856;239;1253;-47
2021/10/25 10:28:50;;;;;;;;;;;20.30;47.60;;;;;;493948;239;1184;-47
2021/10/25 10:30:52;;;;;;;;;;;20.30;47.70;;;;;;494064;239;2124;-46
2021/10/25 10:32:53;;;;;;;;;;;20.30;47.60;;;;;;494038;239;1528;-47
2021/10/25 10:34:54;;;;;;;;;;;20.30;47.60;;;;;;493993;239;1088;-47
2021/10/25 10:36:56;;;;;;;;;;;20.30;47.60;;;;;;494070;239;1324;-47
2021/10/25 10:38:58;;;;;;;;;;;20.30;47.60;;;;;;493876;239;2121;-47
2021/10/25 10:40:58;;;;;;;;;;;20.30;47.70;;;;;;493714;241;2358;-47
2021/10/25 10:42:59;;;;;;;;;;;20.30;47.60;;;;;;493780;241;1172;-47
2021/10/25 10:45:03;;;;;;;;;;;20.30;47.50;;;;;;494011;239;1096;-46
2021/10/25 10:47:07;;;;;;;;;;;20.30;47.60;;;;;;493716;241;1341;-46
2021/10/25 10:49:03;;;;;;;;;;;20.30;47.60;;;;;;493619;241;2285;-47
2021/10/25 10:51:06;;;;;;;;;;;20.30;47.70;;;;;;493900;239;2178;-47
2021/10/25 10:53:09;;;;;;;;;;;20.30;47.60;;;;;;493780;241;1361;-47
2021/10/25 10:55:10;;;;;;;;;;;20.30;47.50;;;;;;493600;241;1651;-46
2021/10/25 10:57:23;;;;;;;;;;;20.30;47.60;;;;;;494155;241;1883;-46
2021/10/25 10:59:30;;;;;;;;;;;20.30;47.60;;;;;;493688;241;2088;-47
2021/10/25 11:01:31;;;;;;;;;;;20.30;47.60;;;;;;494476;239;1993;-46
2021/10/25 11:03:32;;;;;;;;;;;20.30;47.60;;;;;;494170;239;1480;-47
2021/10/25 11:05:34;;;;;;;;;;;20.30;47.70;;;;;;493943;239;1199;-47
2021/10/25 11:07:35;;;;;;;;;;;20.30;47.60;;;;;;494170;239;1199;-47
2021/10/25 11:09:36;;;;;;;;;;;20.40;47.60;;;;;;494066;239;1193;-47
2021/10/25 11:11:40;;;;;;;;;;;20.30;47.50;;;;;;493733;241;2108;-47
2021/10/25 11:13:42;;;;;;;;;;;20.30;47.60;;;;;;493823;239;1994;-47
2021/10/25 11:15:48;;;;;;;;;;;20.30;47.50;;;;;;494604;241;2272;-47
2021/10/25 11:17:43;;;;;;;;;;;20.40;47.60;;;;;;494189;241;2141;-47
2021/10/25 11:19:44;;;;;;;;;;;20.40;47.60;;;;;;494251;241;1139;-47
2021/10/25 11:21:48;;;;;;;;;;;20.30;47.60;;;;;;494080;239;1201;-47
2021/10/25 11:23:48;;;;;;;;;;;20.30;47.60;;;;;;493914;239;2350;-47
2021/10/25 11:25:48;;;;;;;;;;;20.30;47.60;;;;;;493851;241;1983;-47
2021/10/25 11:27:51;;;;;;;;;;;20.30;47.70;;;;;;493941;239;1191;-47
2021/10/25 11:29:51;;;;;;;;;;;20.30;47.60;;;;;;493837;241;1812;-47
2021/10/25 11:31:52;;;;;;;;;;;20.30;47.70;;;;;;494135;239;2190;-47
2021/10/25 11:33:54;;;;;;;;;;;20.30;47.70;;;;;;494403;239;1130;-46
2021/10/25 11:35:56;;;;;;;;;;;20.30;47.60;;;;;;493569;239;1394;-46
2021/10/25 11:37:57;;;;;;;;;;;20.30;47.60;;;;;;493662;241;2176;-47
2021/10/25 11:40:03;;;;;;;;;;;20.30;47.60;;;;;;493859;239;1099;-47
2021/10/25 11:41:59;;;;;;;;;;;20.30;47.70;;;;;;493527;241;1378;-47
2021/10/25 11:44:01;;;;;;;;;;;20.40;47.70;;;;;;493889;239;1072;-47
2021/10/25 11:46:02;;;;;;;;;;;20.30;47.60;;;;;;494059;239;1221;-46
2021/10/25 11:48:03;;;;;;;;;;;20.30;47.60;;;;;;494698;239;1047;-47
2021/10/25 11:50:05;;;;;;;;;;;20.30;47.70;;;;;;494243;239;852;-47
2021/10/25 11:52:06;;;;;;;;;;;20.30;47.70;;;;;;494495;239;2178;-46
2021/10/25 11:54:07;;;;;;;;;;;20.30;47.60;;;;;;493616;239;831;-47
2021/10/25 11:56:09;;;;;;;;;;;20.40;47.60;;;;;;494277;239;1262;-47
2021/10/25 11:58:10;;;;;;;;;;;20.30;47.60;;;;;;494579;239;1246;-47
2021/10/25 12:00:12;;;;;;;;;;;20.30;47.70;;;;;;493767;239;1067;-47
2021/10/25 12:02:13;;;;;;;;;;;20.30;47.70;;;;;;493915;239;1464;-46
2021/10/25 12:04:14;;;;;;;;;;;20.30;47.70;;;;;;494439;239;1181;-47
2021/10/25 12:06:15;;;;;;;;;;;20.30;47.60;;;;;;494170;239;1184;-46
2021/10/25 12:08:17;;;;;;;;;;;20.40;47.60;;;;;;494647;239;1231;-47
2021/10/25 12:10:18;;;;;;;;;;;20.40;47.60;;;;;;493683;239;1318;-47
2021/10/25 12:12:19;;;;;;;;;;;20.30;47.60;;;;;;493634;239;2116;-47
2021/10/25 12:14:25;;;;;;;;;;;20.40;47.60;;;;;;493915;239;1185;-47
2021/10/25 12:16:23;;;;;;;;;;;20.30;47.60;;;;;;493757;241;2535;-47
2021/10/25 12:18:24;;;;;;;;;;;20.30;47.60;;;;;;494123;239;1136;-46
2021/10/25 12:20:25;;;;;;;;;;;20.40;47.60;;;;;;493703;239;1290;-47
2021/10/25 12:22:27;;;;;;;;;;;20.30;47.60;;;;;;493948;239;1146;-47
2021/10/25 12:24:28;;;;;;;;;;;20.40;47.70;;;;;;494037;239;1056;-46
2021/10/25 12:26:29;;;;;;;;;;;20.40;47.70;;;;;;493981;239;1314;-47
2021/10/25 12:28:31;;;;;;;;;;;20.40;47.60;;;;;;493964;239;1183;-47
2021/10/25 12:30:32;;;;;;;;;;;20.40;47.60;;;;;;493895;239;1029;-47
2021/10/25 12:32:35;;;;;;;;;;;20.30;47.50;;;;;;493956;239;2143;-46
2021/10/25 12:34:35;;;;;;;;;;;20.40;47.70;;;;;;493776;239;1614;-47
2021/10/25 12:36:36;;;;;;;;;;;20.30;47.70;;;;;;493901;239;1231;-46
2021/10/25 12:38:38;;;;;;;;;;;20.30;47.70;;;;;;494740;239;1185;-47
2021/10/25 12:40:39;;;;;;;;;;;20.30;47.70;;;;;;493919;239;1133;-47
2021/10/25 12:42:40;;;;;;;;;;;20.40;47.60;;;;;;493917;239;1188;-47
2021/10/25 12:44:44;;;;;;;;;;;20.30;47.60;;;;;;493909;239;1059;-47
2021/10/25 12:46:43;;;;;;;;;;;20.40;47.70;;;;;;493740;241;1483;-47
2021/10/25 12:48:45;;;;;;;;;;;20.40;47.70;;;;;;493974;239;1082;-47
2021/10/25 12:50:50;;;;;;;;;;;20.30;47.70;;;;;;493668;239;2186;-47
2021/10/25 12:52:47;;;;;;;;;;;20.30;47.60;;;;;;493327;241;2172;-47
2021/10/25 12:54:49;;;;;;;;;;;20.40;47.60;;;;;;493670;239;1105;-47
2021/10/25 12:56:51;;;;;;;;;;;20.30;47.60;;;;;;493720;239;1131;-47
2021/10/25 12:58:51;;;;;;;;;;;20.40;47.60;;;;;;493796;239;2362;-47
2021/10/25 13:00:53;;;;;;;;;;;20.40;47.60;;;;;;494012;239;1358;-47
2021/10/25 13:02:55;;;;;;;;;;;20.40;47.70;;;;;;493783;239;1129;-47
2021/10/25 13:04:56;;;;;;;;;;;20.40;47.70;;;;;;493719;239;1121;-47
2021/10/25 13:06:57;;;;;;;;;;;20.40;47.70;;;;;;493719;239;1255;-46
2021/10/25 13:08:58;;;;;;;;;;;20.40;47.70;;;;;;493886;239;1200;-47
2021/10/25 13:11:00;;;;;;;;;;;20.30;47.60;;;;;;493943;239;2190;-47